Briefing drone pour Olemps

Rechercher une autre localisation

Conditions de vol :


Nous sommes le : Jeudi 25 février 2021
Il est 05:10 UTC (06:10 LT)

Lever de soleil : 06:06 UTC (07:06 LT)
Coucher de soleil : 17:59 UTC (18:59 LT)

Météo

L'essentiel des conditions de vol

VIGILANCE MÉTÉO FRANCE - Aveyron (12)
Pas de vigilances particulieres
CARTE TEMSI
CARTES DES FRONTS
METAR de LFCR
LFCR 250500Z AUTO 12014KT CAVOK 09/M00 Q1028 NOSIG

Date d'émission: 25/02/2021
Heure d'émission: 05:00 UTC
Vent: 120° pour 14 KT (26 km/h)
Visibilité horizontale: > 10 km
Plafond : Plafond et visibilité OK (CAVOK)
Température: 9 °C
Point de rosée: 0 °C
Humidité: 53%
Pression (QNH): 1028 hPa
Conditions: Pas de changement dans les 2 heures (NOSIG)
TAF de LFCR
LFCR 241700Z 2418/2518 13012KT CAVOK

Conditions prévues :

Heure d'émission : Bulletin éffectué le 24 à 18:00 UTC
Prévision : Valide du 24 a 18:00 UTC au 25 a 18:00 UTC
Vent : 130° pour 12 KT (22 km/h)
Visibilité : > 10 km
WEBCAM POUR OLEMPS

Réglementation

Voler en sécurité

CARTES AERONAUTIQUE 1/500.000
CARTES VAC (LFCR)
SUP AIP




Chargement des AIP...
NOTAM (OLEMPS + Terrain à proximité / FIR )




Chargement des NOTAMS...
CONTACT PREFECTURE 12


Avertissement : Les données mises à disposition sont indicatives. Oxygène Drone ne pourra être tenu responsable de dégâts causés aux biens et aux personnes.